Time;durP1;ratioP1;P1;durP2;ratioP2;P2;SDS_P1;SDS_P2;PMS_P1;PMS_P2;Temp;Humidity;BMP_temperature;BMP_pressure;BME280_temperature;BME280_humidity;BME280_pressure;Samples;Min_cycle;Max_cycle;Signal;HPM_P1;HPM_P2
2021/04/01 00:01:06;;;;;;;18.45;7.55;;;;;;;;;;5041467;28;20107;-71
2021/04/01 00:03:34;;;;;;;19.02;7.18;;;;;;;;;;5043071;28;20064;-69
2021/04/01 00:06:01;;;;;;;17.33;7.47;;;;;;;;;;5043600;28;20099;-69
2021/04/01 00:08:28;;;;;;;19.52;8.30;;;;;;;;;;5035006;28;20558;-69
2021/04/01 00:10:55;;;;;;;16.40;7.03;;;;;;;;;;5041527;28;20045;-69
2021/04/01 00:13:24;;;;;;;16.30;7.38;;;;;;;;;;5043176;28;20092;-71
2021/04/01 00:15:53;;;;;;;16.17;7.95;;;;;;;;;;5040954;28;20090;-70
2021/04/01 00:18:21;;;;;;;16.30;7.95;;;;;;;;;;5043135;28;20493;-70
2021/04/01 00:20:49;;;;;;;15.73;6.93;;;;;;;;;;5045892;28;20069;-69
2021/04/01 00:23:23;;;;;;;16.92;7.45;;;;;;;;;;5042090;28;20072;-69
2021/04/01 00:25:51;;;;;;;16.38;8.00;;;;;;;;;;5035946;28;20103;-71
2021/04/01 00:28:18;;;;;;;15.02;7.38;;;;;;;;;;5033524;28;20064;-71
2021/04/01 00:30:46;;;;;;;17.83;7.18;;;;;;;;;;5040161;28;20044;-69
2021/04/01 00:33:14;;;;;;;17.77;7.18;;;;;;;;;;5047081;28;20081;-70
2021/04/01 00:35:42;;;;;;;14.63;7.03;;;;;;;;;;5047381;28;20069;-69
2021/04/01 00:38:09;;;;;;;15.07;6.90;;;;;;;;;;5046409;28;20107;-69
2021/04/01 00:40:36;;;;;;;11.50;6.90;;;;;;;;;;5044548;28;20499;-70
2021/04/01 00:43:04;;;;;;;16.48;7.03;;;;;;;;;;5046288;28;20106;-70
2021/04/01 00:45:31;;;;;;;15.73;6.78;;;;;;;;;;5045079;28;20053;-70
2021/04/01 00:47:59;;;;;;;17.63;7.00;;;;;;;;;;5045775;28;20052;-69
2021/04/01 00:50:29;;;;;;;13.27;6.60;;;;;;;;;;5047417;28;20037;-69
2021/04/01 00:52:57;;;;;;;14.75;7.25;;;;;;;;;;5067229;28;20052;-70
2021/04/01 00:55:26;;;;;;;15.20;6.85;;;;;;;;;;5053095;28;20053;-70
2021/04/01 00:57:54;;;;;;;13.15;7.43;;;;;;;;;;5045032;28;20365;-69
2021/04/01 01:00:25;;;;;;;14.07;7.40;;;;;;;;;;5039890;28;20442;-70
2021/04/01 01:02:53;;;;;;;13.30;6.88;;;;;;;;;;5038516;28;20190;-70
2021/04/01 01:05:22;;;;;;;14.05;6.75;;;;;;;;;;5038961;28;20107;-70
2021/04/01 01:07:49;;;;;;;10.88;5.75;;;;;;;;;;5046100;28;20415;-69
2021/04/01 01:10:18;;;;;;;14.13;6.40;;;;;;;;;;5052077;28;20139;-70
2021/04/01 01:12:45;;;;;;;10.52;6.00;;;;;;;;;;5051543;28;20128;-68
2021/04/01 01:15:13;;;;;;;11.93;5.85;;;;;;;;;;5051132;28;20047;-69
2021/04/01 01:17:41;;;;;;;12.20;6.20;;;;;;;;;;5050689;28;20055;-71
2021/04/01 01:20:09;;;;;;;13.63;6.55;;;;;;;;;;5052193;28;20135;-70
2021/04/01 01:22:39;;;;;;;12.40;6.43;;;;;;;;;;5050729;28;20126;-70
2021/04/01 01:25:08;;;;;;;9.90;5.32;;;;;;;;;;5043541;28;20081;-70
2021/04/01 01:27:36;;;;;;;14.43;6.65;;;;;;;;;;5050879;28;20053;-70
2021/04/01 01:30:05;;;;;;;9.38;6.05;;;;;;;;;;5052429;28;20083;-69
2021/04/01 01:32:36;;;;;;;11.38;5.72;;;;;;;;;;5049594;28;20216;-71
2021/04/01 01:35:04;;;;;;;15.50;4.97;;;;;;;;;;5040812;28;20399;-69
2021/04/01 01:37:31;;;;;;;20.35;6.75;;;;;;;;;;5043014;28;20049;-70
2021/04/01 01:39:58;;;;;;;14.15;5.03;;;;;;;;;;5048538;28;20048;-70
2021/04/01 01:42:27;;;;;;;13.40;6.40;;;;;;;;;;5051476;28;20106;-70
2021/04/01 01:44:54;;;;;;;12.00;5.63;;;;;;;;;;5051595;28;20140;-70
2021/04/01 01:47:21;;;;;;;14.75;5.18;;;;;;;;;;5052050;28;20055;-70
2021/04/01 01:49:49;;;;;;;13.70;5.40;;;;;;;;;;5048570;28;20067;-69
2021/04/01 01:52:16;;;;;;;14.43;4.88;;;;;;;;;;5051695;28;20098;-70
2021/04/01 01:54:43;;;;;;;18.90;6.75;;;;;;;;;;5049639;28;20056;-69
2021/04/01 01:57:11;;;;;;;10.85;4.97;;;;;;;;;;5049443;28;20053;-69
2021/04/01 01:59:39;;;;;;;14.23;5.65;;;;;;;;;;5051496;28;20133;-69
2021/04/01 02:02:07;;;;;;;14.02;4.78;;;;;;;;;;5049206;28;20619;-70
2021/04/01 02:04:34;;;;;;;14.93;5.18;;;;;;;;;;5050080;28;20497;-70
2021/04/01 02:07:01;;;;;;;14.60;5.38;;;;;;;;;;5049094;28;20088;-69
2021/04/01 02:09:28;;;;;;;12.23;4.97;;;;;;;;;;5049707;28;20503;-69
2021/04/01 02:11:56;;;;;;;12.75;4.93;;;;;;;;;;5050340;28;20080;-69
2021/04/01 02:14:23;;;;;;;12.15;4.90;;;;;;;;;;5050780;28;20124;-71
2021/04/01 02:16:52;;;;;;;12.75;5.43;;;;;;;;;;5050117;28;20053;-70
2021/04/01 02:19:19;;;;;;;16.38;5.57;;;;;;;;;;5051238;28;20559;-70
2021/04/01 02:21:46;;;;;;;11.77;5.60;;;;;;;;;;5048389;28;20049;-70
2021/04/01 02:24:13;;;;;;;13.18;5.00;;;;;;;;;;5049210;28;20107;-72
2021/04/01 02:26:41;;;;;;;10.77;5.07;;;;;;;;;;5046701;28;20057;-70
2021/04/01 02:29:08;;;;;;;10.80;5.10;;;;;;;;;;5046609;28;20470;-69
2021/04/01 02:31:36;;;;;;;11.02;4.60;;;;;;;;;;5050717;28;20124;-70
2021/04/01 02:34:04;;;;;;;11.27;5.25;;;;;;;;;;5051055;28;20049;-68
2021/04/01 02:36:31;;;;;;;9.38;4.53;;;;;;;;;;5050539;28;20132;-71
2021/04/01 02:38:58;;;;;;;15.18;5.00;;;;;;;;;;5047723;28;20140;-69
2021/04/01 02:41:25;;;;;;;13.32;4.63;;;;;;;;;;5050557;28;20128;-69
2021/04/01 02:43:53;;;;;;;10.93;4.25;;;;;;;;;;5049156;28;20435;-68
2021/04/01 02:46:20;;;;;;;10.90;4.90;;;;;;;;;;5051701;28;20077;-68
2021/04/01 02:48:47;;;;;;;8.60;4.50;;;;;;;;;;5049923;28;20045;-69
2021/04/01 02:51:16;;;;;;;10.80;4.93;;;;;;;;;;5052177;28;20053;-69
2021/04/01 02:53:43;;;;;;;10.93;4.90;;;;;;;;;;5050113;28;20119;-69
2021/04/01 02:56:10;;;;;;;10.85;4.38;;;;;;;;;;5050139;28;20060;-69
2021/04/01 02:58:38;;;;;;;12.65;5.05;;;;;;;;;;5050425;28;20139;-69
2021/04/01 03:01:07;;;;;;;17.15;5.00;;;;;;;;;;5047731;28;20044;-69
2021/04/01 03:03:37;;;;;;;11.38;4.80;;;;;;;;;;5049710;28;20135;-68
2021/04/01 03:06:05;;;;;;;9.35;4.25;;;;;;;;;;5038865;28;20041;-68
2021/04/01 03:08:33;;;;;;;17.33;5.07;;;;;;;;;;5048442;28;20044;-69
2021/04/01 03:11:01;;;;;;;14.07;5.47;;;;;;;;;;5044455;28;20127;-68
2021/04/01 03:13:28;;;;;;;13.57;4.40;;;;;;;;;;5049629;28;20044;-68
2021/04/01 03:15:55;;;;;;;12.00;3.97;;;;;;;;;;5050898;28;20135;-69
2021/04/01 03:18:22;;;;;;;14.15;4.68;;;;;;;;;;5039695;28;20143;-69
2021/04/01 03:20:50;;;;;;;12.85;4.70;;;;;;;;;;5048822;28;20045;-69
2021/04/01 03:23:18;;;;;;;7.72;4.20;;;;;;;;;;5050780;28;20127;-71
2021/04/01 03:25:46;;;;;;;8.98;3.90;;;;;;;;;;5048729;28;20041;-69
2021/04/01 03:28:15;;;;;;;9.32;4.07;;;;;;;;;;5046893;28;20432;-70
2021/04/01 03:30:47;;;;;;;9.73;4.07;;;;;;;;;;5043082;28;20053;-70
2021/04/01 03:33:14;;;;;;;6.82;3.53;;;;;;;;;;5046513;28;20131;-69
2021/04/01 03:35:41;;;;;;;12.13;4.05;;;;;;;;;;5048756;28;20132;-69
2021/04/01 03:38:10;;;;;;;13.15;4.78;;;;;;;;;;5048554;28;20041;-69
2021/04/01 03:40:37;;;;;;;11.18;3.97;;;;;;;;;;5048293;28;20075;-69
2021/04/01 03:43:05;;;;;;;8.48;4.22;;;;;;;;;;5048778;28;20560;-69
2021/04/01 03:45:32;;;;;;;12.25;4.28;;;;;;;;;;5045903;28;20045;-70
2021/04/01 03:48:00;;;;;;;17.13;4.35;;;;;;;;;;5049229;28;20556;-69
2021/04/01 03:50:27;;;;;;;10.63;4.18;;;;;;;;;;5048750;28;20500;-68
2021/04/01 03:52:54;;;;;;;7.30;4.47;;;;;;;;;;5050733;28;20051;-68
2021/04/01 03:55:33;;;;;;;13.13;4.38;;;;;;;;;;5048222;28;20479;-69
2021/04/01 03:58:05;;;;;;;11.02;4.30;;;;;;;;;;5048455;28;20151;-69
2021/04/01 04:00:35;;;;;;;19.35;4.82;;;;;;;;;;5047717;28;20045;-69
2021/04/01 04:03:10;;;;;;;15.02;4.57;;;;;;;;;;5049183;28;20057;-69
2021/04/01 04:05:45;;;;;;;13.10;4.50;;;;;;;;;;5050210;28;20136;-69
2021/04/01 04:08:38;;;;;;;14.55;5.38;;;;;;;;;;5053705;28;20063;-70
2021/04/01 04:11:13;;;;;;;11.52;4.47;;;;;;;;;;5050585;28;20076;-69
2021/04/01 04:13:46;;;;;;;;;;;;;;;;;;5043377;28;20043;-69
2021/04/01 04:16:15;;;;;;;9.32;3.72;;;;;;;;;;5053682;28;20378;-69
2021/04/01 04:18:42;;;;;;;9.18;3.80;;;;;;;;;;5052447;28;20048;-71
2021/04/01 04:21:09;;;;;;;12.80;4.68;;;;;;;;;;5053097;28;20122;-69
2021/04/01 04:23:40;;;;;;;7.00;3.97;;;;;;;;;;5051561;28;20069;-69
2021/04/01 04:26:08;;;;;;;12.95;4.50;;;;;;;;;;5034828;28;20050;-68
2021/04/01 04:28:36;;;;;;;15.45;4.95;;;;;;;;;;5050301;28;20144;-69
2021/04/01 04:31:04;;;;;;;14.60;4.15;;;;;;;;;;5052548;28;20547;-70
2021/04/01 04:33:32;;;;;;;12.23;3.70;;;;;;;;;;5053439;28;20128;-69
2021/04/01 04:36:00;;;;;;;10.40;4.03;;;;;;;;;;5047964;28;20059;-70
2021/04/01 04:38:28;;;;;;;14.63;4.72;;;;;;;;;;5048326;28;20048;-70
2021/04/01 04:40:56;;;;;;;13.70;4.57;;;;;;;;;;5050549;28;20135;-70
2021/04/01 04:43:24;;;;;;;9.55;4.20;;;;;;;;;;5051357;28;20496;-70
2021/04/01 04:45:52;;;;;;;13.45;3.75;;;;;;;;;;5050236;28;20064;-70
2021/04/01 04:48:20;;;;;;;14.15;3.80;;;;;;;;;;5049512;28;20128;-70
2021/04/01 04:50:48;;;;;;;11.65;3.92;;;;;;;;;;5055987;28;20128;-70
2021/04/01 04:53:16;;;;;;;13.95;5.10;;;;;;;;;;5052696;28;20083;-71
2021/04/01 04:55:49;;;;;;;9.82;4.50;;;;;;;;;;5048428;28;20132;-70
2021/04/01 04:58:21;;;;;;;9.15;3.80;;;;;;;;;;5050845;28;20232;-70
2021/04/01 05:01:01;;;;;;;17.88;3.53;;;;;;;;;;5051387;28;20131;-69
2021/04/01 05:06:27;;;;;;;11.55;3.83;;;;;;;;;;5052107;28;20124;-70
2021/04/01 05:08:54;;;;;;;9.60;3.72;;;;;;;;;;5052749;28;20076;-70
2021/04/01 05:11:22;;;;;;;11.95;4.13;;;;;;;;;;5051561;28;20397;-70
2021/04/01 05:13:49;;;;;;;13.85;3.78;;;;;;;;;;5052425;28;20136;-69
2021/04/01 05:16:16;;;;;;;14.45;3.85;;;;;;;;;;5048565;28;20040;-69
2021/04/01 05:18:46;;;;;;;8.27;3.15;;;;;;;;;;5043820;28;20144;-69
2021/04/01 05:21:14;;;;;;;11.27;4.15;;;;;;;;;;5051029;28;20453;-70
2021/04/01 05:23:45;;;;;;;13.82;3.70;;;;;;;;;;5052458;28;20473;-70
2021/04/01 05:29:01;;;;;;;8.48;4.00;;;;;;;;;;5050980;28;20077;-69
2021/04/01 05:31:30;;;;;;;11.00;4.22;;;;;;;;;;5053127;28;20140;-70
2021/04/01 05:33:58;;;;;;;8.60;3.50;;;;;;;;;;5050568;28;20049;-71
2021/04/01 05:36:27;;;;;;;11.35;3.92;;;;;;;;;;5043005;28;20054;-70
2021/04/01 05:38:56;;;;;;;13.05;3.70;;;;;;;;;;5049583;28;20120;-70
2021/04/01 05:41:25;;;;;;;13.07;3.50;;;;;;;;;;5050397;28;20049;-69
2021/04/01 05:43:59;;;;;;;11.13;3.10;;;;;;;;;;5050199;28;20149;-70
2021/04/01 05:46:32;;;;;;;8.73;3.30;;;;;;;;;;5049619;28;20136;-69
2021/04/01 05:49:09;;;;;;;7.35;3.65;;;;;;;;;;5053076;28;20066;-70
2021/04/01 05:51:59;;;;;;;20.70;3.75;;;;;;;;;;5053118;28;20045;-70
2021/04/01 06:00:22;;;;;;;15.80;3.22;;;;;;;;;;5040090;28;20049;-69
2021/04/01 06:03:00;;;;;;;10.20;3.40;;;;;;;;;;5041421;28;20139;-69
2021/04/01 06:05:29;;;;;;;14.75;3.28;;;;;;;;;;5048130;28;20475;-69
2021/04/01 06:08:06;;;;;;;9.13;3.40;;;;;;;;;;5046210;28;20488;-70
2021/04/01 06:10:35;;;;;;;12.20;3.85;;;;;;;;;;5047567;28;20068;-71
2021/04/01 06:13:08;;;;;;;16.83;4.18;;;;;;;;;;5046816;28;20052;-70
2021/04/01 06:15:36;;;;;;;17.13;4.18;;;;;;;;;;5044869;28;20064;-69
2021/04/01 06:18:08;;;;;;;13.18;3.67;;;;;;;;;;5049192;28;20135;-69
2021/04/01 06:20:37;;;;;;;16.67;4.55;;;;;;;;;;5054221;28;20044;-69
2021/04/01 06:23:05;;;;;;;10.38;3.15;;;;;;;;;;5050415;28;20167;-69
2021/04/01 06:25:35;;;;;;;7.22;3.72;;;;;;;;;;5044775;28;20707;-69
2021/04/01 06:28:05;;;;;;;9.70;3.55;;;;;;;;;;5048076;28;20061;-68
2021/04/01 06:30:44;;;;;;;11.68;3.40;;;;;;;;;;5050341;28;20055;-69
2021/04/01 06:33:13;;;;;;;13.27;4.38;;;;;;;;;;5042077;28;20053;-69
2021/04/01 06:35:42;;;;;;;9.63;4.50;;;;;;;;;;5050017;28;20092;-69
2021/04/01 06:40:55;;;;;;;10.55;3.40;;;;;;;;;;5047181;28;20041;-69
2021/04/01 06:43:47;;;;;;;13.23;5.45;;;;;;;;;;5048094;28;20132;-68
2021/04/01 06:46:15;;;;;;;17.40;4.65;;;;;;;;;;5045019;28;20129;-68
2021/04/01 06:49:09;;;;;;;15.38;3.50;;;;;;;;;;5050658;28;20390;-68
2021/04/01 06:51:46;;;;;;;15.70;3.22;;;;;;;;;;5045265;28;20045;-69
2021/04/01 06:54:22;;;;;;;14.95;3.50;;;;;;;;;;5046740;28;20057;-69
2021/04/01 07:00:31;;;;;;;15.18;3.20;;;;;;;;;;5046222;28;20049;-69
2021/04/01 07:03:13;;;;;;;10.88;3.55;;;;;;;;;;5048059;28;20045;-71
2021/04/01 07:05:50;;;;;;;10.80;3.70;;;;;;;;;;5039815;28;20053;-69
2021/04/01 07:08:23;;;;;;;8.02;3.22;;;;;;;;;;5048241;28;20087;-70
2021/04/01 07:10:55;;;;;;;10.75;3.35;;;;;;;;;;5048596;28;20045;-68
2021/04/01 07:13:30;;;;;;;8.23;2.88;;;;;;;;;;5046612;28;20045;-68
2021/04/01 07:16:16;;;;;;;11.25;3.33;;;;;;;;;;5048687;28;20076;-68
2021/04/01 07:19:01;;;;;;;15.93;3.30;;;;;;;;;;5046136;28;20057;-68
2021/04/01 07:34:32;;;;;;;11.13;3.90;;;;;;;;;;5042222;28;20045;-71
2021/04/01 07:35:59;;;;;;;11.10;2.95;;;;;;;;;;5043459;28;20048;-70
2021/04/01 07:46:58;;;;;;;9.50;3.40;;;;;;;;;;5044553;28;20049;-69
2021/04/01 07:49:29;;;;;;;9.90;3.72;;;;;;;;;;5041814;28;20076;-69
2021/04/01 07:51:59;;;;;;;9.32;3.13;;;;;;;;;;5040883;28;20683;-71
2021/04/01 07:54:31;;;;;;;14.77;3.75;;;;;;;;;;5041031;28;20055;-70
2021/04/01 07:57:07;;;;;;;11.00;3.88;;;;;;;;;;5043214;28;20052;-70
2021/04/01 07:59:48;;;;;;;13.18;3.75;;;;;;;;;;5039477;28;20052;-70
2021/04/01 08:02:30;;;;;;;11.75;4.00;;;;;;;;;;5038962;28;20057;-69
2021/04/01 08:04:59;;;;;;;19.70;4.38;;;;;;;;;;5040281;28;20072;-71
2021/04/01 08:07:32;;;;;;;16.50;4.78;;;;;;;;;;5039194;28;20056;-68
2021/04/01 08:10:05;;;;;;;13.35;4.40;;;;;;;;;;5043583;28;20055;-68
2021/04/01 08:12:41;;;;;;;17.70;4.82;;;;;;;;;;5040923;28;20045;-69
2021/04/01 08:15:11;;;;;;;15.23;4.82;;;;;;;;;;5037258;28;20045;-68
2021/04/01 08:17:48;;;;;;;12.63;4.57;;;;;;;;;;5045919;28;20049;-72
2021/04/01 08:20:19;;;;;;;17.77;5.40;;;;;;;;;;5064905;28;20082;-68
2021/04/01 08:23:10;;;;;;;14.98;5.57;;;;;;;;;;5055043;28;20045;-68
2021/04/01 08:26:13;;;;;;;21.38;7.00;;;;;;;;;;5061190;28;20044;-68
2021/04/01 08:32:33;;;;;;;11.77;5.25;;;;;;;;;;5065519;28;20047;-69
2021/04/01 08:35:24;;;;;;;15.38;5.70;;;;;;;;;;5065015;28;20059;-72
2021/04/01 08:38:13;;;;;;;17.23;5.78;;;;;;;;;;5065482;28;20760;-69
2021/04/01 08:41:04;;;;;;;16.23;5.55;;;;;;;;;;5064678;28;20259;-69
2021/04/01 08:44:01;;;;;;;17.88;5.07;;;;;;;;;;5058508;28;20155;-70
2021/04/01 08:46:54;;;;;;;12.50;5.55;;;;;;;;;;5069416;28;20044;-71
2021/04/01 08:49:28;;;;;;;17.88;6.68;;;;;;;;;;5060930;28;20057;-71
2021/04/01 08:52:05;;;;;;;16.08;7.05;;;;;;;;;;5054446;28;20044;-69
2021/04/01 08:54:40;;;;;;;16.45;6.60;;;;;;;;;;5065983;28;20550;-69
2021/04/01 08:57:11;;;;;;;16.58;6.97;;;;;;;;;;5068125;28;20056;-71
2021/04/01 08:59:47;;;;;;;25.60;7.45;;;;;;;;;;5069668;28;20097;-69
2021/04/01 09:02:15;;;;;;;21.77;7.40;;;;;;;;;;5068066;28;20052;-68
2021/04/01 09:04:47;;;;;;;17.90;6.97;;;;;;;;;;5065120;28;20486;-69
2021/04/01 09:07:19;;;;;;;15.77;6.70;;;;;;;;;;5067307;28;20544;-70
2021/04/01 09:09:50;;;;;;;21.55;7.50;;;;;;;;;;5067004;28;20174;-73
2021/04/01 09:12:20;;;;;;;20.45;7.85;;;;;;;;;;5068003;28;20175;-70
2021/04/01 09:14:57;;;;;;;25.80;7.75;;;;;;;;;;5066316;28;20044;-71
2021/04/01 09:17:31;;;;;;;20.77;8.23;;;;;;;;;;5062055;28;20064;-69
2021/04/01 09:19:59;;;;;;;18.48;7.95;;;;;;;;;;5069936;28;20053;-69
2021/04/01 09:22:30;;;;;;;16.27;6.78;;;;;;;;;;5067083;28;20431;-70
2021/04/01 09:24:59;;;;;;;16.20;6.35;;;;;;;;;;5061168;28;20063;-70
2021/04/01 09:27:26;;;;;;;23.55;8.15;;;;;;;;;;5063989;28;20122;-69
2021/04/01 09:30:01;;;;;;;20.48;7.07;;;;;;;;;;5060797;28;20135;-70
2021/04/01 09:32:29;;;;;;;;;;;;;;;;;;5063831;28;20047;-74
2021/04/01 09:34:59;;;;;;;19.35;7.30;;;;;;;;;;5059556;28;19947;-72
2021/04/01 09:37:28;;;;;;;22.00;6.18;;;;;;;;;;5060400;28;20194;-69
2021/04/01 09:39:56;;;;;;;20.65;7.10;;;;;;;;;;5063175;28;20044;-71
2021/04/01 09:42:24;;;;;;;21.92;7.68;;;;;;;;;;5062660;28;20048;-70
2021/04/01 09:44:54;;;;;;;16.33;6.05;;;;;;;;;;5060545;28;20661;-71
2021/04/01 09:47:29;;;;;;;17.55;6.05;;;;;;;;;;5052718;28;20516;-71
2021/04/01 09:49:56;;;;;;;;;;;;;;;;;;5061118;28;20543;-69
2021/04/01 09:52:26;;;;;;;14.93;5.93;;;;;;;;;;5057677;28;20380;-69
2021/04/01 09:54:59;;;;;;;15.63;5.75;;;;;;;;;;5061635;28;20592;-70
2021/04/01 09:57:28;;;;;;;17.35;6.63;;;;;;;;;;5067755;28;20531;-69
2021/04/01 10:00:08;;;;;;;22.50;5.88;;;;;;;;;;5071999;28;20054;-69
2021/04/01 10:02:41;;;;;;;13.80;5.70;;;;;;;;;;5065414;28;20135;-69
2021/04/01 10:05:11;;;;;;;18.67;5.88;;;;;;;;;;5065598;28;20089;-69
2021/04/01 10:07:51;;;;;;;12.38;4.95;;;;;;;;;;5062907;28;20746;-71
2021/04/01 10:10:30;;;;;;;14.27;4.85;;;;;;;;;;5063836;28;20086;-70
2021/04/01 10:12:58;;;;;;;11.57;6.13;;;;;;;;;;5067648;28;20048;-70
2021/04/01 10:15:29;;;;;;;13.52;5.90;;;;;;;;;;5066348;28;20075;-70
2021/04/01 10:17:59;;;;;;;12.85;5.93;;;;;;;;;;5063712;28;20048;-70
2021/04/01 10:20:27;;;;;;;13.77;5.55;;;;;;;;;;5067276;28;20078;-70
2021/04/01 10:23:06;;;;;;;20.83;6.35;;;;;;;;;;5067885;28;20058;-70
2021/04/01 10:25:47;;;;;;;19.75;6.70;;;;;;;;;;5058424;28;20487;-69
2021/04/01 10:28:25;;;;;;;17.70;7.18;;;;;;;;;;5065692;28;20054;-72
2021/04/01 10:30:56;;;;;;;16.38;5.75;;;;;;;;;;5061152;28;20515;-69
2021/04/01 10:33:31;;;;;;;20.88;5.72;;;;;;;;;;5065461;28;20072;-70
2021/04/01 10:36:03;;;;;;;12.88;6.32;;;;;;;;;;5072612;28;20045;-71
2021/04/01 10:38:31;;;;;;;17.17;6.70;;;;;;;;;;5064698;28;20044;-69
2021/04/01 10:41:10;;;;;;;10.85;5.75;;;;;;;;;;5064927;28;20571;-69
2021/04/01 10:43:41;;;;;;;12.90;5.22;;;;;;;;;;5061013;28;20044;-72
2021/04/01 10:46:15;;;;;;;14.43;5.82;;;;;;;;;;5063035;28;20524;-70
2021/04/01 10:48:55;;;;;;;17.58;5.65;;;;;;;;;;5063276;28;20404;-71
2021/04/01 10:51:23;;;;;;;11.93;5.10;;;;;;;;;;5059450;28;20412;-73
2021/04/01 10:53:51;;;;;;;12.43;5.38;;;;;;;;;;5065031;28;20060;-69
2021/04/01 10:56:20;;;;;;;11.43;4.78;;;;;;;;;;5062705;28;20733;-70
2021/04/01 10:58:48;;;;;;;15.32;6.20;;;;;;;;;;5062270;28;20527;-69
2021/04/01 11:01:17;;;;;;;15.88;5.57;;;;;;;;;;5063361;28;20080;-71
2021/04/01 11:03:46;;;;;;;12.85;5.45;;;;;;;;;;5060244;28;20052;-71
2021/04/01 11:06:15;;;;;;;12.35;5.43;;;;;;;;;;5065556;28;20053;-69
2021/04/01 11:08:43;;;;;;;12.55;4.72;;;;;;;;;;5062000;28;20339;-70
2021/04/01 11:11:12;;;;;;;11.90;5.15;;;;;;;;;;5067856;28;20526;-70
2021/04/01 11:13:42;;;;;;;9.55;3.92;;;;;;;;;;5066008;28;20067;-71
2021/04/01 11:16:10;;;;;;;16.52;5.75;;;;;;;;;;5066928;28;20093;-70
2021/04/01 11:18:40;;;;;;;18.40;6.22;;;;;;;;;;5072190;28;20055;-70
2021/04/01 11:21:09;;;;;;;10.70;5.00;;;;;;;;;;5063666;28;20883;-69
2021/04/01 11:23:37;;;;;;;11.48;5.50;;;;;;;;;;5062665;28;20482;-71
2021/04/01 11:26:05;;;;;;;13.70;5.93;;;;;;;;;;5064363;28;20063;-71
2021/04/01 11:28:38;;;;;;;10.95;5.28;;;;;;;;;;5067330;28;20391;-70
2021/04/01 11:31:07;;;;;;;11.73;5.25;;;;;;;;;;5064112;28;20110;-69
2021/04/01 11:33:37;;;;;;;11.30;5.15;;;;;;;;;;5066261;28;20442;-70
2021/04/01 11:36:10;;;;;;;11.35;4.90;;;;;;;;;;5057688;28;20055;-70
2021/04/01 11:38:43;;;;;;;13.52;5.13;;;;;;;;;;5056287;28;20063;-68
2021/04/01 11:41:14;;;;;;;13.80;4.85;;;;;;;;;;5064065;28;20300;-70
2021/04/01 11:43:42;;;;;;;11.45;4.30;;;;;;;;;;5063930;28;20384;-70
2021/04/01 11:46:18;;;;;;;10.93;4.15;;;;;;;;;;5062158;28;20041;-71
2021/04/01 11:48:46;;;;;;;12.02;3.88;;;;;;;;;;5056661;28;20144;-74
2021/04/01 11:51:18;;;;;;;14.35;4.57;;;;;;;;;;5066708;28;20052;-71
2021/04/01 11:53:46;;;;;;;12.38;4.30;;;;;;;;;;5062225;28;20122;-71
2021/04/01 11:56:17;;;;;;;13.35;4.50;;;;;;;;;;5066402;28;20148;-70
2021/04/01 11:58:45;;;;;;;12.40;5.18;;;;;;;;;;5061503;28;20057;-71
2021/04/01 12:01:18;;;;;;;13.13;4.90;;;;;;;;;;5057496;28;20049;-71
2021/04/01 12:03:58;;;;;;;12.73;4.30;;;;;;;;;;5077218;28;20060;-70
2021/04/01 12:06:28;;;;;;;10.55;4.03;;;;;;;;;;5062081;28;20052;-71
2021/04/01 12:08:57;;;;;;;14.60;4.85;;;;;;;;;;5062220;28;20053;-68
2021/04/01 12:11:27;;;;;;;14.07;5.65;;;;;;;;;;5064570;28;20106;-69
2021/04/01 12:13:54;;;;;;;9.50;3.97;;;;;;;;;;5065604;28;20677;-72
2021/04/01 12:16:23;;;;;;;12.77;3.95;;;;;;;;;;5063682;28;20056;-72
2021/04/01 12:18:52;;;;;;;12.73;4.18;;;;;;;;;;5064259;28;20139;-70
2021/04/01 12:21:20;;;;;;;14.85;4.30;;;;;;;;;;5064238;28;20048;-70
2021/04/01 12:23:49;;;;;;;10.18;4.47;;;;;;;;;;5068265;28;20135;-70
2021/04/01 12:26:17;;;;;;;8.63;3.22;;;;;;;;;;5062217;28;20070;-70
2021/04/01 12:28:54;;;;;;;16.13;4.15;;;;;;;;;;5069041;28;20129;-70
2021/04/01 12:31:29;;;;;;;8.43;4.10;;;;;;;;;;5059046;28;20144;-71
2021/04/01 12:33:57;;;;;;;8.30;3.92;;;;;;;;;;5066344;28;20471;-72
2021/04/01 12:36:31;;;;;;;9.95;4.20;;;;;;;;;;5066051;28;20048;-69
2021/04/01 12:39:04;;;;;;;11.65;3.20;;;;;;;;;;5068427;28;20051;-69
2021/04/01 12:41:35;;;;;;;10.90;3.53;;;;;;;;;;5070735;28;20041;-69
2021/04/01 12:44:03;;;;;;;10.68;3.40;;;;;;;;;;5069215;28;20155;-69
2021/04/01 12:46:37;;;;;;;11.10;4.80;;;;;;;;;;5066300;28;20049;-70
2021/04/01 12:49:06;;;;;;;11.80;3.80;;;;;;;;;;5064368;28;20622;-69
2021/04/01 12:51:42;;;;;;;10.07;3.50;;;;;;;;;;5057002;28;20051;-68
2021/04/01 12:54:11;;;;;;;8.43;3.88;;;;;;;;;;5057718;28;20429;-69
2021/04/01 12:56:41;;;;;;;8.25;4.05;;;;;;;;;;5069042;28;20059;-69
2021/04/01 12:59:13;;;;;;;14.27;3.50;;;;;;;;;;5061247;28;20221;-68
2021/04/01 13:01:41;;;;;;;11.60;4.25;;;;;;;;;;5062128;28;20205;-68
2021/04/01 13:04:12;;;;;;;11.32;4.05;;;;;;;;;;5061028;28;20064;-68
2021/04/01 13:06:46;;;;;;;10.48;3.85;;;;;;;;;;5064802;28;20052;-70
2021/04/01 13:09:33;;;;;;;12.80;3.60;;;;;;;;;;5067065;28;20480;-69
2021/04/01 13:12:09;;;;;;;8.15;4.13;;;;;;;;;;5068568;28;20555;-68
2021/04/01 13:14:38;;;;;;;10.73;3.88;;;;;;;;;;5069175;28;20147;-70
2021/04/01 13:17:06;;;;;;;12.70;4.20;;;;;;;;;;5068327;28;20547;-69
2021/04/01 13:19:35;;;;;;;11.48;3.88;;;;;;;;;;5061532;28;20094;-69
2021/04/01 13:22:09;;;;;;;9.80;3.50;;;;;;;;;;5069859;28;20078;-68
2021/04/01 13:24:42;;;;;;;19.42;4.15;;;;;;;;;;5071274;28;20051;-68
2021/04/01 13:27:11;;;;;;;12.93;3.67;;;;;;;;;;5069881;28;20526;-69
2021/04/01 13:29:40;;;;;;;7.07;3.25;;;;;;;;;;5059205;28;20076;-70
2021/04/01 13:32:12;;;;;;;11.77;3.47;;;;;;;;;;5064661;28;20040;-72
2021/04/01 13:34:44;;;;;;;7.60;2.90;;;;;;;;;;5060874;28;20057;-69
2021/04/01 13:37:15;;;;;;;9.52;3.67;;;;;;;;;;5080118;28;20052;-68
2021/04/01 13:39:47;;;;;;;10.27;4.22;;;;;;;;;;5069642;28;20052;-69
2021/04/01 13:42:16;;;;;;;6.40;2.90;;;;;;;;;;5066797;28;20049;-71
2021/04/01 13:44:48;;;;;;;11.48;3.75;;;;;;;;;;5071128;28;20048;-69
2021/04/01 13:47:17;;;;;;;11.27;3.22;;;;;;;;;;5070234;28;20503;-69
2021/04/01 13:49:46;;;;;;;9.85;3.35;;;;;;;;;;5081427;28;20884;-70
2021/04/01 13:52:22;;;;;;;8.10;3.13;;;;;;;;;;5072788;28;20053;-72
2021/04/01 13:54:56;;;;;;;7.93;2.88;;;;;;;;;;5066467;28;20041;-70
2021/04/01 13:57:42;;;;;;;9.60;2.92;;;;;;;;;;5069887;28;20067;-69
2021/04/01 14:00:21;;;;;;;7.60;3.17;;;;;;;;;;5071144;28;20075;-69
2021/04/01 14:11:13;;;;;;;9.70;3.35;;;;;;;;;;5059051;28;20385;-69
2021/04/01 14:13:41;;;;;;;10.20;3.88;;;;;;;;;;5083477;28;20576;-68
2021/04/01 14:16:08;;;;;;;9.93;3.40;;;;;;;;;;5085161;28;20121;-68
2021/04/01 14:18:36;;;;;;;7.20;2.92;;;;;;;;;;5065879;28;20041;-69
2021/04/01 14:21:06;;;;;;;8.73;3.20;;;;;;;;;;5069685;28;20060;-69
2021/04/01 14:23:36;;;;;;;10.25;3.65;;;;;;;;;;5068570;28;20056;-69
2021/04/01 14:26:06;;;;;;;9.27;2.97;;;;;;;;;;5069396;28;20087;-69
2021/04/01 14:28:35;;;;;;;8.32;3.42;;;;;;;;;;5062582;28;20052;-70
2021/04/01 14:31:04;;;;;;;9.40;3.13;;;;;;;;;;5067043;28;20048;-69
2021/04/01 14:33:31;;;;;;;9.20;3.55;;;;;;;;;;5066742;28;20553;-70
2021/04/01 14:36:07;;;;;;;11.95;3.40;;;;;;;;;;5070015;28;20484;-71
2021/04/01 14:38:35;;;;;;;9.98;3.33;;;;;;;;;;5069108;28;20056;-70
2021/04/01 14:41:04;;;;;;;11.52;3.20;;;;;;;;;;5080661;28;20082;-69
2021/04/01 14:43:36;;;;;;;10.38;4.05;;;;;;;;;;5069873;28;20052;-68
2021/04/01 14:46:04;;;;;;;12.80;3.72;;;;;;;;;;5069790;28;20052;-68
2021/04/01 14:48:32;;;;;;;8.43;3.15;;;;;;;;;;5068763;28;20058;-68
2021/04/01 14:51:00;;;;;;;9.55;3.03;;;;;;;;;;5069165;28;20106;-68
2021/04/01 14:53:34;;;;;;;14.70;3.17;;;;;;;;;;5064098;28;20059;-68
2021/04/01 14:56:03;;;;;;;13.05;3.33;;;;;;;;;;5066639;28;20056;-68
2021/04/01 14:58:32;;;;;;;12.63;3.60;;;;;;;;;;5063009;28;20392;-70
2021/04/01 15:01:00;;;;;;;11.20;4.10;;;;;;;;;;5060512;28;20504;-69
2021/04/01 15:03:28;;;;;;;10.48;4.05;;;;;;;;;;5063318;28;20052;-68
2021/04/01 15:05:56;;;;;;;7.38;3.47;;;;;;;;;;5062833;28;20091;-68
2021/04/01 15:08:25;;;;;;;6.75;3.28;;;;;;;;;;5065898;28;20061;-69
2021/04/01 15:10:55;;;;;;;11.07;4.93;;;;;;;;;;5064594;28;20052;-68
2021/04/01 15:13:23;;;;;;;8.27;4.05;;;;;;;;;;5066867;28;20044;-71
2021/04/01 15:15:51;;;;;;;10.65;3.60;;;;;;;;;;5059271;28;20046;-72
2021/04/01 15:18:38;;;;;;;8.93;4.07;;;;;;;;;;5063859;28;20052;-69
2021/04/01 15:21:07;;;;;;;9.15;3.72;;;;;;;;;;5056069;28;20056;-69
2021/04/01 15:23:35;;;;;;;7.80;3.42;;;;;;;;;;5065677;28;20055;-69
2021/04/01 15:26:04;;;;;;;11.23;4.38;;;;;;;;;;5065472;28;20044;-69
2021/04/01 15:28:32;;;;;;;7.78;3.85;;;;;;;;;;5065487;28;20059;-69
2021/04/01 15:30:59;;;;;;;10.15;3.83;;;;;;;;;;5061977;28;20139;-69
2021/04/01 15:33:27;;;;;;;7.45;3.83;;;;;;;;;;5066437;28;20049;-68
2021/04/01 15:35:55;;;;;;;7.55;3.88;;;;;;;;;;5066753;28;20074;-69
2021/04/01 15:38:23;;;;;;;9.50;3.70;;;;;;;;;;5069619;28;20045;-69
2021/04/01 15:40:51;;;;;;;10.30;3.70;;;;;;;;;;5072295;28;20040;-70
2021/04/01 15:43:21;;;;;;;9.93;2.95;;;;;;;;;;5077174;28;20431;-69
2021/04/01 15:45:49;;;;;;;8.77;4.18;;;;;;;;;;5062058;28;20049;-68